createdAt,value
2018-06-29T00:00:38.106Z,98546.00
2018-06-29T00:03:08.451Z,98546.00
2018-06-29T00:05:39.262Z,98544.00
2018-06-29T00:08:10.547Z,98547.00
2018-06-29T00:10:41.398Z,98544.00
2018-06-29T00:13:12.653Z,98542.00
2018-06-29T00:15:43.644Z,98542.00
2018-06-29T00:18:15.358Z,98544.00
2018-06-29T00:20:46.168Z,98545.00
2018-06-29T00:23:17.076Z,98541.00
2018-06-29T00:25:48.031Z,98542.00
2018-06-29T00:28:18.720Z,98541.00
2018-06-29T00:30:49.634Z,98538.00
2018-06-29T00:33:20.430Z,98537.00
2018-06-29T00:35:51.206Z,98529.00
2018-06-29T00:38:21.885Z,98523.00
2018-06-29T00:40:52.915Z,98515.00
2018-06-29T00:43:23.515Z,98513.00
2018-06-29T00:45:54.747Z,98506.00
2018-06-29T00:48:25.214Z,98503.00
2018-06-29T00:50:56.365Z,98503.00
2018-06-29T00:53:27.048Z,98504.00
2018-06-29T00:55:58.068Z,98499.00
2018-06-29T00:58:28.808Z,98489.00
2018-06-29T01:00:59.647Z,98497.00
2018-06-29T01:03:30.330Z,98501.00
2018-06-29T01:06:01.019Z,98496.00
2018-06-29T01:08:31.149Z,98496.00
2018-06-29T01:11:02.312Z,98498.00
2018-06-29T01:13:33.421Z,98496.00
2018-06-29T01:16:04.528Z,98496.00
2018-06-29T01:18:35.300Z,98494.00
2018-06-29T01:21:05.794Z,98497.00
2018-06-29T01:23:37.168Z,98493.00
2018-06-29T01:26:07.751Z,98494.00
2018-06-29T01:28:38.366Z,98491.00
2018-06-29T01:31:09.029Z,98500.00
2018-06-29T01:33:39.717Z,98493.00
2018-06-29T01:36:10.074Z,98495.00
2018-06-29T01:38:40.613Z,98488.00
2018-06-29T01:41:11.326Z,98493.00
2018-06-29T01:43:41.953Z,98485.00
2018-06-29T01:46:12.846Z,98482.00
2018-06-29T01:48:43.357Z,98480.00
2018-06-29T01:51:13.899Z,98478.00
2018-06-29T01:53:44.755Z,98477.00
2018-06-29T01:56:15.425Z,98495.00
2018-06-29T01:58:46.202Z,98491.00
2018-06-29T02:01:16.847Z,98497.00
2018-06-29T02:03:47.821Z,98497.00
2018-06-29T02:06:17.928Z,98497.00
2018-06-29T02:08:48.897Z,98494.00
2018-06-29T02:11:19.917Z,98496.00
2018-06-29T02:13:50.547Z,98493.00
2018-06-29T02:16:21.447Z,98494.00
2018-06-29T02:18:52.107Z,98497.00
2018-06-29T02:21:22.953Z,98502.00
2018-06-29T02:23:53.704Z,98503.00
2018-06-29T02:26:24.608Z,98499.00
2018-06-29T02:28:55.289Z,98497.00
2018-06-29T02:31:25.957Z,98493.00
2018-06-29T02:33:56.621Z,98492.00
2018-06-29T02:36:27.198Z,98494.00
2018-06-29T02:38:57.831Z,98495.00
2018-06-29T02:41:28.910Z,98497.00
2018-06-29T02:43:59.526Z,98494.00
2018-06-29T02:46:30.066Z,98492.00
2018-06-29T02:49:01.472Z,98491.00
2018-06-29T02:51:32.449Z,98488.00
2018-06-29T02:54:03.157Z,98488.00
2018-06-29T02:56:34.495Z,98493.00
2018-06-29T02:59:05.320Z,98494.00
2018-06-29T03:01:35.799Z,98493.00
2018-06-29T03:04:06.919Z,98490.00
2018-06-29T03:06:37.535Z,98491.00
2018-06-29T03:09:09.726Z,98495.00
2018-06-29T03:11:40.757Z,98499.00
2018-06-29T03:14:11.675Z,98498.00
2018-06-29T03:16:42.217Z,98506.00
2018-06-29T03:19:12.838Z,98506.00
2018-06-29T03:21:43.582Z,98506.00
2018-06-29T03:24:13.658Z,98502.00
2018-06-29T03:26:44.401Z,98505.00
2018-06-29T03:29:15.047Z,98505.00
2018-06-29T03:31:44.872Z,98508.00
2018-06-29T03:34:14.678Z,98504.00
2018-06-29T03:36:44.506Z,98500.00
2018-06-29T03:39:14.307Z,98493.00
2018-06-29T03:41:44.122Z,98494.00
2018-06-29T03:44:14.173Z,98494.00
2018-06-29T03:46:44.291Z,98492.00
2018-06-29T03:49:14.442Z,98498.00
2018-06-29T03:51:44.570Z,98502.00
2018-06-29T03:54:14.400Z,98501.00
2018-06-29T03:56:44.205Z,98501.00
2018-06-29T03:59:13.984Z,98496.00
2018-06-29T04:01:43.735Z,98498.00
2018-06-29T04:04:13.611Z,98498.00
2018-06-29T04:06:43.496Z,98496.00
2018-06-29T04:09:13.581Z,98498.00
2018-06-29T04:11:43.446Z,98502.00
2018-06-29T04:14:13.276Z,98500.00
2018-06-29T04:16:43.132Z,98501.00
2018-06-29T04:19:12.919Z,98502.00
2018-06-29T04:21:42.718Z,98500.00
2018-06-29T04:24:12.565Z,98504.00
2018-06-29T04:26:42.432Z,98507.00
2018-06-29T04:29:12.254Z,98508.00
2018-06-29T04:31:42.082Z,98507.00
2018-06-29T04:34:12.131Z,98507.00
2018-06-29T04:36:42.111Z,98508.00
2018-06-29T04:39:12.731Z,98512.00
2018-06-29T04:41:42.826Z,98504.00
2018-06-29T04:44:12.758Z,98506.00
2018-06-29T04:46:42.504Z,98502.00
2018-06-29T04:49:12.280Z,98502.00
2018-06-29T04:51:42.130Z,98503.00
2018-06-29T04:54:11.960Z,98507.00
2018-06-29T04:56:41.790Z,98511.00
2018-06-29T04:59:11.711Z,98510.00
2018-06-29T05:01:41.499Z,98516.00
2018-06-29T05:04:11.395Z,98516.00
2018-06-29T05:06:41.188Z,98504.00
2018-06-29T05:09:10.968Z,98503.00
2018-06-29T05:11:40.775Z,98509.00
2018-06-29T05:14:10.629Z,98501.00
2018-06-29T05:16:40.620Z,98496.00
2018-06-29T05:19:10.616Z,98492.00
2018-06-29T05:21:40.603Z,98496.00
2018-06-29T05:24:10.471Z,98499.00
2018-06-29T05:26:40.256Z,98500.00
2018-06-29T05:29:10.010Z,98501.00
2018-06-29T05:31:39.906Z,98505.00
2018-06-29T05:34:09.748Z,98513.00
2018-06-29T05:36:39.533Z,98510.00
2018-06-29T05:39:10.878Z,98508.00
2018-06-29T05:41:40.953Z,98510.00
2018-06-29T05:44:10.914Z,98512.00
2018-06-29T05:46:40.745Z,98513.00
2018-06-29T05:49:10.827Z,98513.00
2018-06-29T05:51:40.624Z,98516.00
2018-06-29T05:54:10.389Z,98514.00
2018-06-29T05:56:40.425Z,98507.00
2018-06-29T05:59:10.529Z,98505.00
2018-06-29T06:01:40.504Z,98511.00
2018-06-29T06:04:10.646Z,98509.00
2018-06-29T06:06:40.544Z,98506.00
2018-06-29T06:09:11.808Z,98503.00
2018-06-29T06:11:41.947Z,98500.00
2018-06-29T06:14:11.732Z,98503.00
2018-06-29T06:16:41.546Z,98495.00
2018-06-29T06:19:22.450Z,98493.00
2018-06-29T06:21:52.670Z,98495.00
2018-06-29T06:24:22.704Z,98491.00
2018-06-29T06:26:52.607Z,98498.00
2018-06-29T06:29:22.588Z,98500.00
2018-06-29T06:31:52.535Z,98501.00
2018-06-29T06:34:22.409Z,98503.00
2018-06-29T06:36:52.541Z,98506.00
2018-06-29T06:39:22.530Z,98506.00
2018-06-29T06:41:52.697Z,98504.00
2018-06-29T06:44:22.677Z,98507.00
2018-06-29T06:46:52.572Z,98506.00
2018-06-29T06:49:22.470Z,98504.00
2018-06-29T06:51:52.282Z,98504.00
2018-06-29T06:54:22.160Z,98494.00
2018-06-29T06:56:52.145Z,98496.00
2018-06-29T06:59:22.259Z,98494.00
2018-06-29T07:01:52.136Z,98492.00
2018-06-29T07:04:22.136Z,98489.00
2018-06-29T07:06:51.913Z,98488.00
2018-06-29T07:09:21.865Z,98485.00
2018-06-29T07:11:51.648Z,98476.00
2018-06-29T07:14:21.454Z,98481.00
2018-06-29T07:16:51.299Z,98471.00
2018-06-29T07:19:21.380Z,98472.00
2018-06-29T07:21:51.487Z,98474.00
2018-06-29T07:24:21.680Z,98483.00
2018-06-29T07:26:51.500Z,98483.00
2018-06-29T07:29:21.706Z,98480.00
2018-06-29T07:31:51.757Z,98478.00
2018-06-29T07:34:21.573Z,98476.00
2018-06-29T07:36:51.454Z,98474.00
2018-06-29T07:39:21.482Z,98479.00
2018-06-29T07:41:51.508Z,98468.00
2018-06-29T07:44:21.627Z,98467.00
2018-06-29T07:46:51.445Z,98465.00
2018-06-29T07:49:21.401Z,98466.00
2018-06-29T07:51:51.156Z,98472.00
2018-06-29T07:54:20.954Z,98474.00
2018-06-29T07:56:50.944Z,98467.00
2018-06-29T07:59:20.767Z,98472.00
2018-06-29T08:01:50.369Z,98467.00
2018-06-29T08:04:20.092Z,98463.00
2018-06-29T08:06:49.667Z,98468.00
2018-06-29T08:09:19.400Z,98471.00
2018-06-29T08:11:48.955Z,98469.00
2018-06-29T08:14:18.572Z,98470.00
2018-06-29T08:16:48.429Z,98467.00
2018-06-29T08:19:18.310Z,98462.00
2018-06-29T08:21:48.200Z,98471.00
2018-06-29T08:24:18.035Z,98468.00
2018-06-29T08:26:47.599Z,98462.00
2018-06-29T08:29:17.185Z,98465.00
2018-06-29T08:31:46.757Z,98462.00
2018-06-29T08:34:16.385Z,98468.00
2018-06-29T08:36:46.155Z,98464.00
2018-06-29T08:39:15.840Z,98460.00
2018-06-29T08:41:45.556Z,98463.00
2018-06-29T08:44:15.407Z,98461.00
2018-06-29T08:46:45.038Z,98456.00
2018-06-29T08:49:14.618Z,98453.00
2018-06-29T08:51:44.182Z,98455.00
2018-06-29T08:54:13.756Z,98449.00
2018-06-29T08:56:43.485Z,98451.00
2018-06-29T08:59:13.241Z,98447.00
2018-06-29T09:01:42.700Z,98453.00
2018-06-29T09:04:12.523Z,98461.00
2018-06-29T09:06:42.142Z,98457.00
2018-06-29T09:09:11.858Z,98458.00
2018-06-29T09:11:41.526Z,98458.00
2018-06-29T09:14:11.210Z,98466.00
2018-06-29T09:16:40.934Z,98460.00
2018-06-29T09:19:10.813Z,98469.00
2018-06-29T09:21:40.558Z,98468.00
2018-06-29T09:24:10.287Z,98466.00
2018-06-29T09:26:39.890Z,98465.00
2018-06-29T09:29:09.453Z,98465.00
2018-06-29T09:31:39.012Z,98471.00
2018-06-29T09:34:08.564Z,98478.00
2018-06-29T09:36:38.377Z,98477.00
2018-06-29T09:39:10.807Z,98474.00
2018-06-29T09:41:40.895Z,98483.00
2018-06-29T09:44:10.735Z,98478.00
2018-06-29T09:46:40.334Z,98474.00
2018-06-29T09:49:09.924Z,98476.00
2018-06-29T09:51:39.494Z,98469.00
2018-06-29T09:54:09.174Z,98464.00
2018-06-29T09:56:38.931Z,98465.00
2018-06-29T09:59:08.717Z,98460.00
2018-06-29T10:01:38.325Z,98463.00
2018-06-29T10:04:08.025Z,98452.00
2018-06-29T10:06:37.541Z,98450.00
2018-06-29T10:09:08.928Z,98444.00
2018-06-29T10:11:38.520Z,98441.00
2018-06-29T10:14:08.429Z,98445.00
2018-06-29T10:16:38.018Z,98447.00
2018-06-29T10:19:07.820Z,98441.00
2018-06-29T10:21:37.753Z,98441.00
2018-06-29T10:24:07.519Z,98448.00
2018-06-29T10:26:37.199Z,98438.00
2018-06-29T10:29:06.843Z,98434.00
2018-06-29T10:31:36.431Z,98437.00
2018-06-29T10:34:06.184Z,98441.00
2018-06-29T10:36:35.742Z,98435.00
2018-06-29T10:39:09.923Z,98427.00
2018-06-29T10:41:39.958Z,98434.00
2018-06-29T10:44:09.694Z,98428.00
2018-06-29T10:46:40.040Z,98420.00
2018-06-29T10:49:09.901Z,98424.00
2018-06-29T10:51:39.499Z,98417.00
2018-06-29T10:54:09.015Z,98416.00
2018-06-29T10:56:39.414Z,98413.00
2018-06-29T10:59:09.092Z,98412.00
2018-06-29T11:01:38.904Z,98406.00
2018-06-29T11:04:08.653Z,98410.00
2018-06-29T11:06:38.350Z,98417.00
2018-06-29T11:09:10.058Z,98410.00
2018-06-29T11:11:39.636Z,98422.00
2018-06-29T11:14:09.637Z,98413.00
2018-06-29T11:16:39.455Z,98420.00
2018-06-29T11:19:09.153Z,98426.00
2018-06-29T11:21:39.043Z,98410.00
2018-06-29T11:24:08.733Z,98411.00
2018-06-29T11:26:38.344Z,98407.00
2018-06-29T11:29:08.040Z,98409.00
2018-06-29T11:31:37.655Z,98405.00
2018-06-29T11:34:07.428Z,98405.00
2018-06-29T11:36:37.247Z,98386.00
2018-06-29T11:39:10.733Z,98383.00
2018-06-29T11:41:40.752Z,98382.00
2018-06-29T11:44:10.731Z,98368.00
2018-06-29T11:46:40.335Z,98363.00
2018-06-29T11:49:10.416Z,98360.00
2018-06-29T11:51:40.020Z,98355.00
2018-06-29T11:54:09.643Z,98357.00
2018-06-29T11:56:39.488Z,98358.00
2018-06-29T11:59:09.313Z,98364.00
2018-06-29T12:01:39.158Z,98358.00
2018-06-29T12:04:08.852Z,98354.00
2018-06-29T12:06:38.462Z,98369.00
2018-06-29T12:09:10.701Z,98361.00
2018-06-29T12:11:40.582Z,98363.00
2018-06-29T12:14:10.229Z,98355.00
2018-06-29T12:16:40.121Z,98349.00
2018-06-29T12:19:09.815Z,98361.00
2018-06-29T12:21:39.585Z,98354.00
2018-06-29T12:24:09.327Z,98344.00
2018-06-29T12:26:38.890Z,98346.00
2018-06-29T12:29:08.584Z,98356.00
2018-06-29T12:31:38.425Z,98338.00
2018-06-29T12:34:08.290Z,98346.00
2018-06-29T12:36:38.213Z,98345.00
2018-06-29T12:39:09.243Z,98346.00
2018-06-29T12:41:39.905Z,98347.00
2018-06-29T12:44:10.127Z,98340.00
2018-06-29T12:46:39.980Z,98342.00
2018-06-29T12:49:10.061Z,98354.00
2018-06-29T12:51:39.930Z,98336.00
2018-06-29T12:54:09.859Z,98341.00
2018-06-29T12:56:39.961Z,98337.00
2018-06-29T12:59:10.266Z,98347.00
2018-06-29T13:01:40.443Z,98332.00
2018-06-29T13:04:10.598Z,98336.00
2018-06-29T13:06:40.394Z,98349.00
2018-06-29T13:09:11.507Z,98345.00
2018-06-29T13:11:41.371Z,98344.00
2018-06-29T13:14:11.208Z,98331.00
2018-06-29T13:16:41.250Z,98323.00
2018-06-29T13:19:11.183Z,98331.00
2018-06-29T13:21:41.411Z,98326.00
2018-06-29T13:24:11.476Z,98325.00
2018-06-29T13:26:41.562Z,98327.00
2018-06-29T13:29:11.734Z,98330.00
2018-06-29T13:31:41.609Z,98327.00
2018-06-29T13:34:11.368Z,98322.00
2018-06-29T13:36:41.408Z,98334.00
2018-06-29T13:39:11.876Z,98332.00
2018-06-29T13:41:41.839Z,98335.00
2018-06-29T13:44:11.748Z,98342.00
2018-06-29T13:46:41.506Z,98341.00
2018-06-29T13:49:11.314Z,98348.00
2018-06-29T13:51:41.130Z,98339.00
2018-06-29T13:54:11.005Z,98343.00
2018-06-29T13:56:40.727Z,98342.00
2018-06-29T13:59:10.656Z,98351.00
2018-06-29T14:01:40.697Z,98343.00
2018-06-29T14:04:10.482Z,98347.00
2018-06-29T14:06:40.246Z,98351.00
2018-06-29T14:09:10.038Z,98350.00
2018-06-29T14:11:39.816Z,98351.00
2018-06-29T14:14:09.685Z,98350.00
2018-06-29T14:16:39.641Z,98353.00
2018-06-29T14:19:09.662Z,98349.00
2018-06-29T14:21:39.714Z,98345.00
2018-06-29T14:24:09.729Z,98343.00
2018-06-29T14:26:39.538Z,98342.00
2018-06-29T14:29:09.438Z,98344.00
2018-06-29T14:31:39.260Z,98346.00
2018-06-29T14:34:09.035Z,98340.00
2018-06-29T14:36:39.053Z,98335.00
2018-06-29T14:39:10.601Z,98337.00
2018-06-29T14:41:40.746Z,98336.00
2018-06-29T14:44:11.575Z,98331.00
2018-06-29T14:46:41.366Z,98331.00
2018-06-29T14:49:11.133Z,98323.00
2018-06-29T14:51:41.123Z,98327.00
2018-06-29T14:54:10.918Z,98325.00
2018-06-29T14:56:40.661Z,98325.00
2018-06-29T14:59:10.484Z,98326.00
2018-06-29T15:01:40.346Z,98323.00
2018-06-29T15:04:10.157Z,98339.00
2018-06-29T15:06:40.024Z,98335.00
2018-06-29T15:09:10.356Z,98353.00
2018-06-29T15:11:40.183Z,98340.00
2018-06-29T15:14:10.005Z,98323.00
2018-06-29T15:16:39.814Z,98334.00
2018-06-29T15:19:09.884Z,98342.00
2018-06-29T15:21:39.852Z,98337.00
2018-06-29T15:24:09.859Z,98334.00
2018-06-29T15:26:39.657Z,98336.00
2018-06-29T15:29:09.666Z,98344.00
2018-06-29T15:31:39.491Z,98333.00
2018-06-29T15:34:09.283Z,98341.00
2018-06-29T15:36:39.265Z,98338.00
2018-06-29T15:39:11.767Z,98337.00
2018-06-29T15:41:41.912Z,98347.00
2018-06-29T15:44:12.626Z,98335.00
2018-06-29T15:46:42.958Z,98338.00
2018-06-29T15:49:12.780Z,98338.00
2018-06-29T15:51:42.599Z,98341.00
2018-06-29T15:54:12.424Z,98336.00
2018-06-29T15:56:42.195Z,98343.00
2018-06-29T15:59:12.110Z,98347.00
2018-06-29T16:01:42.004Z,98352.00
2018-06-29T16:04:11.776Z,98348.00
2018-06-29T16:06:41.591Z,98344.00
2018-06-29T16:09:11.698Z,98343.00
2018-06-29T16:11:41.533Z,98345.00
2018-06-29T16:14:11.398Z,98351.00
2018-06-29T16:16:41.204Z,98352.00
2018-06-29T16:19:11.153Z,98360.00
2018-06-29T16:21:41.062Z,98345.00
2018-06-29T16:24:10.925Z,98345.00
2018-06-29T16:26:40.742Z,98351.00
2018-06-29T16:29:10.632Z,98353.00
2018-06-29T16:31:40.392Z,98347.00
2018-06-29T16:34:10.194Z,98357.00
2018-06-29T16:36:40.430Z,98358.00
2018-06-29T16:39:12.667Z,98361.00
2018-06-29T16:41:42.819Z,98363.00
2018-06-29T16:44:12.678Z,98366.00
2018-06-29T16:46:42.471Z,98366.00
2018-06-29T16:49:12.405Z,98368.00
2018-06-29T16:51:42.269Z,98380.00
2018-06-29T16:54:12.062Z,98374.00
2018-06-29T16:56:41.829Z,98372.00
2018-06-29T16:59:11.708Z,98364.00
2018-06-29T17:01:41.584Z,98371.00
2018-06-29T17:04:11.436Z,98363.00
2018-06-29T17:06:41.227Z,98371.00
2018-06-29T17:09:11.325Z,98373.00
2018-06-29T17:11:41.111Z,98372.00
2018-06-29T17:14:10.916Z,98371.00
2018-06-29T17:16:40.813Z,98372.00
2018-06-29T17:19:10.637Z,98371.00
2018-06-29T17:21:40.460Z,98369.00
2018-06-29T17:24:10.265Z,98368.00
2018-06-29T17:26:40.096Z,98364.00
2018-06-29T17:29:10.418Z,98364.00
2018-06-29T17:31:40.277Z,98365.00
2018-06-29T17:34:10.354Z,98354.00
2018-06-29T17:36:40.305Z,98349.00
2018-06-29T17:39:11.765Z,98355.00
2018-06-29T17:41:41.702Z,98356.00
2018-06-29T17:44:11.720Z,98347.00
2018-06-29T17:46:41.556Z,98359.00
2018-06-29T17:49:11.295Z,98356.00
2018-06-29T17:51:41.169Z,98357.00
2018-06-29T17:54:10.969Z,98359.00
2018-06-29T17:56:41.100Z,98363.00
2018-06-29T17:59:11.112Z,98368.00
2018-06-29T18:01:41.139Z,98362.00
2018-06-29T18:04:10.927Z,98368.00
2018-06-29T18:06:40.747Z,98359.00
2018-06-29T18:09:11.893Z,98364.00
2018-06-29T18:11:41.733Z,98365.00
2018-06-29T18:14:11.563Z,98364.00
2018-06-29T18:16:41.520Z,98368.00
2018-06-29T18:19:11.472Z,98372.00
2018-06-29T18:21:41.520Z,98372.00
2018-06-29T18:24:11.504Z,98362.00
2018-06-29T18:26:41.289Z,98368.00
2018-06-29T18:29:11.146Z,98375.00
2018-06-29T18:31:41.125Z,98364.00
2018-06-29T18:34:11.053Z,98370.00
2018-06-29T18:36:40.910Z,98369.00
2018-06-29T18:39:12.462Z,98369.00
2018-06-29T18:41:42.424Z,98366.00
2018-06-29T18:44:12.710Z,98373.00
2018-06-29T18:46:42.502Z,98366.00
2018-06-29T18:49:12.258Z,98364.00
2018-06-29T18:51:42.137Z,98367.00
2018-06-29T18:54:12.073Z,98370.00
2018-06-29T18:56:42.022Z,98374.00
2018-06-29T18:59:11.917Z,98371.00
2018-06-29T19:01:41.825Z,98373.00
2018-06-29T19:04:11.643Z,98370.00
2018-06-29T19:06:41.425Z,98376.00
2018-06-29T19:09:11.666Z,98374.00
2018-06-29T19:11:41.414Z,98371.00
2018-06-29T19:14:11.221Z,98374.00
2018-06-29T19:16:41.049Z,98381.00
2018-06-29T19:19:10.910Z,98382.00
2018-06-29T19:21:40.816Z,98381.00
2018-06-29T19:24:10.798Z,98370.00
2018-06-29T19:26:40.694Z,98373.00
2018-06-29T19:29:10.584Z,98375.00
2018-06-29T19:31:40.399Z,98375.00
2018-06-29T19:34:10.443Z,98378.00
2018-06-29T19:36:40.225Z,98380.00
2018-06-29T19:39:11.305Z,98382.00
2018-06-29T19:41:42.014Z,98378.00
2018-06-29T19:44:12.227Z,98383.00
2018-06-29T19:46:42.003Z,98384.00
2018-06-29T19:49:11.800Z,98380.00
2018-06-29T19:51:41.596Z,98387.00
2018-06-29T19:54:11.430Z,98381.00
2018-06-29T19:56:41.281Z,98380.00
2018-06-29T19:59:11.257Z,98380.00
2018-06-29T20:01:41.283Z,98377.00
2018-06-29T20:04:11.080Z,98378.00
2018-06-29T20:06:40.969Z,98385.00
2018-06-29T20:09:12.322Z,98383.00
2018-06-29T20:11:42.204Z,98376.00
2018-06-29T20:14:14.721Z,98375.00
2018-06-29T20:16:44.892Z,98378.00
2018-06-29T20:19:14.743Z,98381.00
2018-06-29T20:21:44.666Z,98383.00
2018-06-29T20:24:14.635Z,98390.00
2018-06-29T20:26:44.450Z,98387.00
2018-06-29T20:29:14.253Z,98391.00
2018-06-29T20:31:44.219Z,98392.00
2018-06-29T20:34:15.084Z,98384.00
2018-06-29T20:36:45.868Z,98387.00
2018-06-29T20:39:16.427Z,98388.00
2018-06-29T20:41:47.121Z,98386.00
2018-06-29T20:44:19.106Z,98389.00
2018-06-29T20:46:49.333Z,98383.00
2018-06-29T20:49:19.672Z,98396.00
2018-06-29T20:51:50.187Z,98400.00
2018-06-29T20:54:21.027Z,98398.00
2018-06-29T20:56:51.720Z,98394.00
2018-06-29T20:59:22.501Z,98389.00
2018-06-29T21:01:53.049Z,98390.00
2018-06-29T21:04:24.306Z,98388.00
2018-06-29T21:06:54.841Z,98387.00
2018-06-29T21:09:25.362Z,98383.00
2018-06-29T21:11:55.480Z,98378.00
2018-06-29T21:14:26.346Z,98381.00
2018-06-29T21:16:58.138Z,98383.00
2018-06-29T21:19:28.977Z,98386.00
2018-06-29T21:21:59.575Z,98388.00
2018-06-29T21:24:30.196Z,98395.00
2018-06-29T21:27:00.522Z,98397.00
2018-06-29T21:29:30.869Z,98392.00
2018-06-29T21:32:01.435Z,98395.00
2018-06-29T21:34:32.017Z,98395.00
2018-06-29T21:37:02.610Z,98394.00
2018-06-29T21:39:33.227Z,98396.00
2018-06-29T21:42:03.874Z,98396.00
2018-06-29T21:44:34.497Z,98398.00
2018-06-29T21:47:04.895Z,98395.00
2018-06-29T21:49:35.604Z,98396.00
2018-06-29T21:52:06.813Z,98399.00
2018-06-29T21:54:37.568Z,98392.00
2018-06-29T21:57:09.257Z,98388.00
2018-06-29T21:59:40.144Z,98388.00
2018-06-29T22:02:10.822Z,98396.00
2018-06-29T22:04:41.776Z,98393.00
2018-06-29T22:07:12.482Z,98401.00
2018-06-29T22:09:43.102Z,98402.00
2018-06-29T22:12:13.899Z,98405.00
2018-06-29T22:14:44.196Z,98406.00
2018-06-29T22:17:15.007Z,98410.00
2018-06-29T22:19:46.082Z,98407.00
2018-06-29T22:22:16.713Z,98406.00
2018-06-29T22:24:47.433Z,98410.00
2018-06-29T22:27:18.149Z,98413.00
2018-06-29T22:29:49.869Z,98418.00
2018-06-29T22:32:20.544Z,98419.00
2018-06-29T22:34:50.740Z,98411.00
2018-06-29T22:37:21.191Z,98409.00
2018-06-29T22:39:52.635Z,98398.00
2018-06-29T22:42:23.655Z,98393.00
2018-06-29T22:44:54.533Z,98391.00
2018-06-29T22:47:25.074Z,98397.00
2018-06-29T22:49:55.971Z,98397.00
2018-06-29T22:52:26.759Z,98397.00
2018-06-29T22:54:57.515Z,98398.00
2018-06-29T22:57:28.247Z,98393.00
2018-06-29T22:59:58.479Z,98394.00
2018-06-29T23:02:29.144Z,98393.00
2018-06-29T23:04:59.923Z,98393.00
2018-06-29T23:07:30.715Z,98398.00
2018-06-29T23:10:01.484Z,98394.00
2018-06-29T23:12:31.967Z,98392.00
2018-06-29T23:15:02.527Z,98385.00
2018-06-29T23:17:33.386Z,98383.00
2018-06-29T23:20:04.212Z,98386.00
2018-06-29T23:22:34.993Z,98378.00
2018-06-29T23:25:06.405Z,98378.00
2018-06-29T23:27:37.056Z,98379.00
2018-06-29T23:30:07.788Z,98371.00
2018-06-29T23:32:38.938Z,98374.00
2018-06-29T23:35:09.963Z,98373.00
2018-06-29T23:37:40.720Z,98373.00
2018-06-29T23:40:11.416Z,98369.00
2018-06-29T23:42:42.154Z,98371.00
2018-06-29T23:45:13.079Z,98372.00
2018-06-29T23:47:44.553Z,98373.00
2018-06-29T23:50:15.393Z,98373.00
2018-06-29T23:52:46.059Z,98370.00
2018-06-29T23:55:17.530Z,98375.00
2018-06-29T23:57:48.363Z,98369.00
